Startpagina
METAR-TAF:

METAR-TAF

Vliegvelden :

Iqaluit, Nunavut, Canada

Luchthaven Iqaluit

breedte: 63-45N, lengte: 068-33W, hoogte: 34 m

Actueel weer

Dit bericht is 49 minuten geleden gemaakt, om 07:00 UTC
Wind 6 kt uit het oostnoordoosten
Temperatuur -5°C
Vochtigheid 73%
Druk 1015 hPa
Zicht: 48.3 km
Weinig wolken op 3000 ft

METAR: CYFB 240700Z 07006KT 30SM FEW030 M05/M09 A2998 RMK SC1 SC TR SLP158

Tijdstip: 03:49 (07:49 UTC)

Verwachting

Dit bericht is 2 uur en het 7 minuten geleden gemaakt, om 05:42 UTC
Verwachting geldig van 24 om 06 UTC tot 25 om 06 UTC
Wind 3 kt uit variabele richting
Zicht: 10 km
Weinig wolken op 4000 ft
Van 25 om 0400 UTC
Wind 5 kt uit het oostzuidoosten
Zicht: 10 km
Weinig wolken op 2000 ft
Verspreide wolken op 4000 ft

TAF: CYFB 240542Z 2406/2506 VRB03KT P6SM FEW040 FM250400 12005KT P6SM FEW020 SCT040 RMK NXT FCST BY 241200Z

Waarnemingen en weersverwachtingen van meer dan 4000 vliegvelden (METAR en TAF).

De beschikbare stations zijn de gele en rode punten op de kaart.

Ga met uw muis naar het station om de naam te zien.

Klik dan om waarnemingen en weersverwachtingen te zien.

kaart wijzigen: klik op de groene knoppen met een zwart kruis om in te zoomen, op de groene knop met een streepje om uit te zoomen of op de groene pijlen voor aangrenzende kaarten.


METAR-TAF: